sensor_id;sensor_type;location;lat;lon;timestamp;temperature;humidity
75899;DHT22;64576;50.460;4.866;2024-03-06T00:00:21;5.08;99.99
75899;DHT22;64576;50.460;4.866;2024-03-06T00:02:46;5.03;99.99
75899;DHT22;64576;50.460;4.866;2024-03-06T00:05:12;5.03;99.99
75899;DHT22;64576;50.460;4.866;2024-03-06T00:07:37;5.01;99.99
75899;DHT22;64576;50.460;4.866;2024-03-06T00:10:03;5.07;99.99
75899;DHT22;64576;50.460;4.866;2024-03-06T00:12:30;5.08;99.99
75899;DHT22;64576;50.460;4.866;2024-03-06T00:14:55;5.07;99.99
75899;DHT22;64576;50.460;4.866;2024-03-06T00:17:21;5.06;99.91
75899;DHT22;64576;50.460;4.866;2024-03-06T00:19:46;5.04;99.99
75899;DHT22;64576;50.460;4.866;2024-03-06T00:22:12;5.04;99.99
75899;DHT22;64576;50.460;4.866;2024-03-06T00:24:38;5.04;99.99
75899;DHT22;64576;50.460;4.866;2024-03-06T00:27:04;5.00;99.99
75899;DHT22;64576;50.460;4.866;2024-03-06T00:29:30;4.96;99.99
75899;DHT22;64576;50.460;4.866;2024-03-06T00:31:56;4.90;99.99
75899;DHT22;64576;50.460;4.866;2024-03-06T00:34:21;4.90;99.99
75899;DHT22;64576;50.460;4.866;2024-03-06T00:36:47;4.83;99.99
75899;DHT22;64576;50.460;4.866;2024-03-06T00:39:12;4.76;99.99
75899;DHT22;64576;50.460;4.866;2024-03-06T00:41:41;4.69;99.99
75899;DHT22;64576;50.460;4.866;2024-03-06T00:44:07;4.63;99.99
75899;DHT22;64576;50.460;4.866;2024-03-06T00:46:32;4.69;99.99
75899;DHT22;64576;50.460;4.866;2024-03-06T00:48:57;4.49;99.99
75899;DHT22;64576;50.460;4.866;2024-03-06T00:51:23;4.44;99.99
75899;DHT22;64576;50.460;4.866;2024-03-06T00:53:48;4.38;99.99
75899;DHT22;64576;50.460;4.866;2024-03-06T00:56:14;4.38;99.99
75899;DHT22;64576;50.460;4.866;2024-03-06T00:58:39;4.30;99.99
75899;DHT22;64576;50.460;4.866;2024-03-06T01:01:04;4.27;99.99
75899;DHT22;64576;50.460;4.866;2024-03-06T01:03:30;4.31;99.99
75899;DHT22;64576;50.460;4.866;2024-03-06T01:05:55;4.28;99.99
75899;DHT22;64576;50.460;4.866;2024-03-06T01:08:23;4.24;99.99
75899;DHT22;64576;50.460;4.866;2024-03-06T01:10:50;4.32;99.99
75899;DHT22;64576;50.460;4.866;2024-03-06T01:13:16;4.34;99.99
75899;DHT22;64576;50.460;4.866;2024-03-06T01:15:42;4.38;99.99
75899;DHT22;64576;50.460;4.866;2024-03-06T01:18:07;4.40;99.99
75899;DHT22;64576;50.460;4.866;2024-03-06T01:20:34;4.41;99.99
75899;DHT22;64576;50.460;4.866;2024-03-06T01:22:59;4.38;99.99
75899;DHT22;64576;50.460;4.866;2024-03-06T01:25:24;4.38;99.99
75899;DHT22;64576;50.460;4.866;2024-03-06T01:27:50;4.37;99.99
75899;DHT22;64576;50.460;4.866;2024-03-06T01:30:15;4.35;99.99
75899;DHT22;64576;50.460;4.866;2024-03-06T01:32:41;4.40;99.99
75899;DHT22;64576;50.460;4.866;2024-03-06T01:35:07;4.41;99.99
75899;DHT22;64576;50.460;4.866;2024-03-06T01:37:32;4.45;99.99
75899;DHT22;64576;50.460;4.866;2024-03-06T01:39:58;4.51;99.99
75899;DHT22;64576;50.460;4.866;2024-03-06T01:42:23;4.59;99.99
75899;DHT22;64576;50.460;4.866;2024-03-06T01:44:49;4.62;99.99
75899;DHT22;64576;50.460;4.866;2024-03-06T01:47:14;4.61;99.99
75899;DHT22;64576;50.460;4.866;2024-03-06T01:49:40;4.63;99.99
75899;DHT22;64576;50.460;4.866;2024-03-06T01:52:09;4.62;99.99
75899;DHT22;64576;50.460;4.866;2024-03-06T01:54:37;4.59;99.99
75899;DHT22;64576;50.460;4.866;2024-03-06T01:57:02;4.61;99.99
75899;DHT22;64576;50.460;4.866;2024-03-06T01:59:28;4.62;99.99
75899;DHT22;64576;50.460;4.866;2024-03-06T02:01:54;4.61;99.99
75899;DHT22;64576;50.460;4.866;2024-03-06T02:04:19;4.56;99.99
75899;DHT22;64576;50.460;4.866;2024-03-06T02:06:46;4.53;99.99
75899;DHT22;64576;50.460;4.866;2024-03-06T02:09:12;4.48;99.99
75899;DHT22;64576;50.460;4.866;2024-03-06T02:11:39;4.41;99.99
75899;DHT22;64576;50.460;4.866;2024-03-06T02:14:04;4.34;99.99
75899;DHT22;64576;50.460;4.866;2024-03-06T02:16:31;4.35;99.99
75899;DHT22;64576;50.460;4.866;2024-03-06T02:18:57;4.32;99.99
75899;DHT22;64576;50.460;4.866;2024-03-06T02:21:24;4.25;99.99
75899;DHT22;64576;50.460;4.866;2024-03-06T02:23:50;4.14;99.99
75899;DHT22;64576;50.460;4.866;2024-03-06T02:26:20;4.14;99.99
75899;DHT22;64576;50.460;4.866;2024-03-06T02:28:48;4.07;99.99
75899;DHT22;64576;50.460;4.866;2024-03-06T02:31:18;4.10;99.99
75899;DHT22;64576;50.460;4.866;2024-03-06T02:33:43;4.07;99.99
75899;DHT22;64576;50.460;4.866;2024-03-06T02:36:18;4.03;99.99
75899;DHT22;64576;50.460;4.866;2024-03-06T02:38:44;3.98;99.99
75899;DHT22;64576;50.460;4.866;2024-03-06T02:41:10;3.90;99.99
75899;DHT22;64576;50.460;4.866;2024-03-06T02:43:36;3.94;99.99
75899;DHT22;64576;50.460;4.866;2024-03-06T02:46:02;3.94;99.99
75899;DHT22;64576;50.460;4.866;2024-03-06T02:48:27;3.89;99.99
75899;DHT22;64576;50.460;4.866;2024-03-06T02:50:53;3.83;99.99
75899;DHT22;64576;50.460;4.866;2024-03-06T02:53:18;3.83;99.99
75899;DHT22;64576;50.460;4.866;2024-03-06T02:55:44;3.85;99.99
75899;DHT22;64576;50.460;4.866;2024-03-06T02:58:09;3.72;99.99
75899;DHT22;64576;50.460;4.866;2024-03-06T03:00:34;3.70;99.99
75899;DHT22;64576;50.460;4.866;2024-03-06T03:03:00;3.58;99.99
75899;DHT22;64576;50.460;4.866;2024-03-06T03:05:25;3.59;99.99
75899;DHT22;64576;50.460;4.866;2024-03-06T03:07:51;3.56;99.99
75899;DHT22;64576;50.460;4.866;2024-03-06T03:10:16;3.54;99.99
75899;DHT22;64576;50.460;4.866;2024-03-06T03:12:42;3.43;99.99
75899;DHT22;64576;50.460;4.866;2024-03-06T03:15:08;3.35;99.99
75899;DHT22;64576;50.460;4.866;2024-03-06T03:17:34;3.25;99.99
75899;DHT22;64576;50.460;4.866;2024-03-06T03:20:00;3.30;99.99
75899;DHT22;64576;50.460;4.866;2024-03-06T03:22:27;3.24;99.99
75899;DHT22;64576;50.460;4.866;2024-03-06T03:24:53;3.34;99.99
75899;DHT22;64576;50.460;4.866;2024-03-06T03:27:18;3.36;99.99
75899;DHT22;64576;50.460;4.866;2024-03-06T03:29:43;3.39;99.99
75899;DHT22;64576;50.460;4.866;2024-03-06T03:32:09;3.35;99.99
75899;DHT22;64576;50.460;4.866;2024-03-06T03:34:34;3.32;99.99
75899;DHT22;64576;50.460;4.866;2024-03-06T03:37:00;3.21;99.99
75899;DHT22;64576;50.460;4.866;2024-03-06T03:39:26;3.07;99.99
75899;DHT22;64576;50.460;4.866;2024-03-06T03:41:52;3.21;99.99
75899;DHT22;64576;50.460;4.866;2024-03-06T03:44:18;3.31;99.99
75899;DHT22;64576;50.460;4.866;2024-03-06T03:46:46;3.32;99.99
75899;DHT22;64576;50.460;4.866;2024-03-06T03:49:11;3.20;99.99
75899;DHT22;64576;50.460;4.866;2024-03-06T03:51:38;3.10;99.99
75899;DHT22;64576;50.460;4.866;2024-03-06T03:54:03;3.07;99.99
75899;DHT22;64576;50.460;4.866;2024-03-06T03:56:29;3.07;99.99
75899;DHT22;64576;50.460;4.866;2024-03-06T03:58:56;3.04;99.99
75899;DHT22;64576;50.460;4.866;2024-03-06T04:01:22;2.93;99.99
75899;DHT22;64576;50.460;4.866;2024-03-06T04:03:48;3.03;99.99
75899;DHT22;64576;50.460;4.866;2024-03-06T04:06:13;3.11;99.99
75899;DHT22;64576;50.460;4.866;2024-03-06T04:08:40;3.12;99.99
75899;DHT22;64576;50.460;4.866;2024-03-06T04:11:06;3.21;99.99
75899;DHT22;64576;50.460;4.866;2024-03-06T04:13:35;3.24;99.99
75899;DHT22;64576;50.460;4.866;2024-03-06T04:16:01;3.11;99.99
75899;DHT22;64576;50.460;4.866;2024-03-06T04:18:28;2.93;99.99
75899;DHT22;64576;50.460;4.866;2024-03-06T04:20:54;2.79;99.99
75899;DHT22;64576;50.460;4.866;2024-03-06T04:23:20;2.77;99.99
75899;DHT22;64576;50.460;4.866;2024-03-06T04:25:46;2.80;99.99
75899;DHT22;64576;50.460;4.866;2024-03-06T04:28:11;2.79;99.99
75899;DHT22;64576;50.460;4.866;2024-03-06T04:30:36;2.75;99.99
75899;DHT22;64576;50.460;4.866;2024-03-06T04:33:02;2.67;99.99
75899;DHT22;64576;50.460;4.866;2024-03-06T04:35:28;2.67;99.99
75899;DHT22;64576;50.460;4.866;2024-03-06T04:37:53;2.66;99.99
75899;DHT22;64576;50.460;4.866;2024-03-06T04:40:19;2.57;99.99
75899;DHT22;64576;50.460;4.866;2024-03-06T04:42:47;2.59;99.99
75899;DHT22;64576;50.460;4.866;2024-03-06T04:45:15;2.56;99.99
75899;DHT22;64576;50.460;4.866;2024-03-06T04:47:41;2.62;99.99
75899;DHT22;64576;50.460;4.866;2024-03-06T04:50:11;2.66;99.99
75899;DHT22;64576;50.460;4.866;2024-03-06T04:52:37;2.60;99.99
75899;DHT22;64576;50.460;4.866;2024-03-06T04:55:03;2.59;99.99
75899;DHT22;64576;50.460;4.866;2024-03-06T04:57:28;2.60;99.99
75899;DHT22;64576;50.460;4.866;2024-03-06T04:59:54;2.59;99.99
75899;DHT22;64576;50.460;4.866;2024-03-06T05:02:20;2.44;99.99
75899;DHT22;64576;50.460;4.866;2024-03-06T05:04:45;2.31;99.99
75899;DHT22;64576;50.460;4.866;2024-03-06T05:07:12;2.24;99.99
75899;DHT22;64576;50.460;4.866;2024-03-06T05:09:38;2.29;99.99
75899;DHT22;64576;50.460;4.866;2024-03-06T05:12:04;2.24;99.99
75899;DHT22;64576;50.460;4.866;2024-03-06T05:14:30;2.21;99.99
75899;DHT22;64576;50.460;4.866;2024-03-06T05:16:55;2.21;99.99
75899;DHT22;64576;50.460;4.866;2024-03-06T05:19:21;2.15;99.99
75899;DHT22;64576;50.460;4.866;2024-03-06T05:21:46;2.14;99.99
75899;DHT22;64576;50.460;4.866;2024-03-06T05:24:11;2.18;99.99
75899;DHT22;64576;50.460;4.866;2024-03-06T05:26:37;2.20;99.99
75899;DHT22;64576;50.460;4.866;2024-03-06T05:29:02;2.25;99.99
75899;DHT22;64576;50.460;4.866;2024-03-06T05:31:28;2.29;99.99
75899;DHT22;64576;50.460;4.866;2024-03-06T05:33:54;2.36;99.99
75899;DHT22;64576;50.460;4.866;2024-03-06T05:36:19;2.29;99.99
75899;DHT22;64576;50.460;4.866;2024-03-06T05:38:45;2.22;99.99
75899;DHT22;64576;50.460;4.866;2024-03-06T05:41:10;2.11;99.99
75899;DHT22;64576;50.460;4.866;2024-03-06T05:43:36;2.10;99.99
75899;DHT22;64576;50.460;4.866;2024-03-06T05:46:01;2.13;99.99
75899;DHT22;64576;50.460;4.866;2024-03-06T05:48:27;2.07;99.99
75899;DHT22;64576;50.460;4.866;2024-03-06T05:50:53;2.15;99.99
75899;DHT22;64576;50.460;4.866;2024-03-06T05:53:18;2.18;99.99
75899;DHT22;64576;50.460;4.866;2024-03-06T05:55:45;2.29;99.99
75899;DHT22;64576;50.460;4.866;2024-03-06T05:58:10;2.25;99.99
75899;DHT22;64576;50.460;4.866;2024-03-06T06:00:35;2.21;99.99
75899;DHT22;64576;50.460;4.866;2024-03-06T06:03:01;2.08;99.99
75899;DHT22;64576;50.460;4.866;2024-03-06T06:05:26;1.90;99.99
75899;DHT22;64576;50.460;4.866;2024-03-06T06:07:52;1.83;99.99
75899;DHT22;64576;50.460;4.866;2024-03-06T06:10:17;1.87;99.99
75899;DHT22;64576;50.460;4.866;2024-03-06T06:12:44;1.87;99.99
75899;DHT22;64576;50.460;4.866;2024-03-06T06:15:10;1.87;99.99
75899;DHT22;64576;50.460;4.866;2024-03-06T06:17:35;1.89;99.99
75899;DHT22;64576;50.460;4.866;2024-03-06T06:20:03;1.89;99.99
75899;DHT22;64576;50.460;4.866;2024-03-06T06:22:29;1.94;99.99
75899;DHT22;64576;50.460;4.866;2024-03-06T06:24:54;2.01;99.99
75899;DHT22;64576;50.460;4.866;2024-03-06T06:27:21;2.03;99.99
75899;DHT22;64576;50.460;4.866;2024-03-06T06:29:46;2.01;99.99
75899;DHT22;64576;50.460;4.866;2024-03-06T06:32:11;2.08;99.99
75899;DHT22;64576;50.460;4.866;2024-03-06T06:34:37;2.13;99.99
75899;DHT22;64576;50.460;4.866;2024-03-06T06:37:02;2.11;99.99
75899;DHT22;64576;50.460;4.866;2024-03-06T06:39:28;2.14;99.99
75899;DHT22;64576;50.460;4.866;2024-03-06T06:41:53;2.13;99.99
75899;DHT22;64576;50.460;4.866;2024-03-06T06:44:18;2.18;99.99
75899;DHT22;64576;50.460;4.866;2024-03-06T06:46:44;2.25;99.99
75899;DHT22;64576;50.460;4.866;2024-03-06T06:49:09;2.34;99.99
75899;DHT22;64576;50.460;4.866;2024-03-06T06:51:34;2.72;99.99
75899;DHT22;64576;50.460;4.866;2024-03-06T06:54:00;2.84;99.99
75899;DHT22;64576;50.460;4.866;2024-03-06T06:56:26;3.10;99.99
75899;DHT22;64576;50.460;4.866;2024-03-06T06:58:51;3.20;99.99
75899;DHT22;64576;50.460;4.866;2024-03-06T07:01:17;2.99;99.99
75899;DHT22;64576;50.460;4.866;2024-03-06T07:03:42;2.86;99.99
75899;DHT22;64576;50.460;4.866;2024-03-06T07:06:08;2.79;99.99
75899;DHT22;64576;50.460;4.866;2024-03-06T07:08:33;2.84;99.99
75899;DHT22;64576;50.460;4.866;2024-03-06T07:10:59;2.86;99.99
75899;DHT22;64576;50.460;4.866;2024-03-06T07:13:24;3.52;99.99
75899;DHT22;64576;50.460;4.866;2024-03-06T07:15:50;3.93;99.99
75899;DHT22;64576;50.460;4.866;2024-03-06T07:18:15;4.25;99.99
75899;DHT22;64576;50.460;4.866;2024-03-06T07:20:40;4.52;99.99
75899;DHT22;64576;50.460;4.866;2024-03-06T07:23:06;4.72;99.11
75899;DHT22;64576;50.460;4.866;2024-03-06T07:25:32;4.93;98.33
75899;DHT22;64576;50.460;4.866;2024-03-06T07:27:57;4.83;98.26
75899;DHT22;64576;50.460;4.866;2024-03-06T07:30:22;4.97;98.19
75899;DHT22;64576;50.460;4.866;2024-03-06T07:32:48;5.28;96.90
75899;DHT22;64576;50.460;4.866;2024-03-06T07:35:13;5.30;96.89
75899;DHT22;64576;50.460;4.866;2024-03-06T07:37:39;5.66;95.41
75899;DHT22;64576;50.460;4.866;2024-03-06T07:40:06;5.82;94.39
75899;DHT22;64576;50.460;4.866;2024-03-06T07:42:32;6.20;93.99
75899;DHT22;64576;50.460;4.866;2024-03-06T07:44:58;6.28;93.04
75899;DHT22;64576;50.460;4.866;2024-03-06T07:47:24;6.55;92.53
75899;DHT22;64576;50.460;4.866;2024-03-06T07:49:49;6.65;91.73
75899;DHT22;64576;50.460;4.866;2024-03-06T07:52:15;6.93;91.40
75899;DHT22;64576;50.460;4.866;2024-03-06T07:54:41;6.71;91.45
75899;DHT22;64576;50.460;4.866;2024-03-06T07:57:06;6.89;91.06
75899;DHT22;64576;50.460;4.866;2024-03-06T07:59:32;6.96;91.65
75899;DHT22;64576;50.460;4.866;2024-03-06T08:01:57;7.30;89.50
75899;DHT22;64576;50.460;4.866;2024-03-06T08:04:23;8.31;87.34
75899;DHT22;64576;50.460;4.866;2024-03-06T08:06:48;7.48;88.45
75899;DHT22;64576;50.460;4.866;2024-03-06T08:09:14;7.98;88.44
75899;DHT22;64576;50.460;4.866;2024-03-06T08:11:42;8.75;86.99
75899;DHT22;64576;50.460;4.866;2024-03-06T08:14:07;8.59;85.65
75899;DHT22;64576;50.460;4.866;2024-03-06T08:16:33;8.93;86.05
75899;DHT22;64576;50.460;4.866;2024-03-06T08:18:59;8.83;85.18
75899;DHT22;64576;50.460;4.866;2024-03-06T08:21:25;9.61;83.69
75899;DHT22;64576;50.460;4.866;2024-03-06T08:23:51;9.96;82.59
75899;DHT22;64576;50.460;4.866;2024-03-06T08:26:16;9.97;81.99
75899;DHT22;64576;50.460;4.866;2024-03-06T08:28:41;10.40;80.72
75899;DHT22;64576;50.460;4.866;2024-03-06T08:31:07;10.82;80.78
75899;DHT22;64576;50.460;4.866;2024-03-06T08:33:33;10.54;80.36
75899;DHT22;64576;50.460;4.866;2024-03-06T08:35:59;10.49;80.48
75899;DHT22;64576;50.460;4.866;2024-03-06T08:38:24;10.40;81.38
75899;DHT22;64576;50.460;4.866;2024-03-06T08:40:50;10.27;82.56
75899;DHT22;64576;50.460;4.866;2024-03-06T08:43:16;10.64;81.00
75899;DHT22;64576;50.460;4.866;2024-03-06T08:45:41;10.82;79.62
75899;DHT22;64576;50.460;4.866;2024-03-06T08:48:07;10.52;80.65
75899;DHT22;64576;50.460;4.866;2024-03-06T08:50:32;10.24;80.55
75899;DHT22;64576;50.460;4.866;2024-03-06T08:52:58;9.97;81.44
75899;DHT22;64576;50.460;4.866;2024-03-06T08:55:23;10.31;81.34
75899;DHT22;64576;50.460;4.866;2024-03-06T08:57:49;10.38;81.68
75899;DHT22;64576;50.460;4.866;2024-03-06T09:00:16;11.12;79.69
75899;DHT22;64576;50.460;4.866;2024-03-06T09:02:43;11.35;78.30
75899;DHT22;64576;50.460;4.866;2024-03-06T09:05:09;11.65;78.76
75899;DHT22;64576;50.460;4.866;2024-03-06T09:07:38;12.24;76.35
75899;DHT22;64576;50.460;4.866;2024-03-06T09:10:06;12.26;75.95
75899;DHT22;64576;50.460;4.866;2024-03-06T09:12:32;11.78;78.21
75899;DHT22;64576;50.460;4.866;2024-03-06T09:14:58;12.64;75.94
75899;DHT22;64576;50.460;4.866;2024-03-06T09:17:25;12.29;75.59
75899;DHT22;64576;50.460;4.866;2024-03-06T09:19:51;12.07;77.04
75899;DHT22;64576;50.460;4.866;2024-03-06T09:22:16;12.68;76.65
75899;DHT22;64576;50.460;4.866;2024-03-06T09:24:42;13.47;77.19
75899;DHT22;64576;50.460;4.866;2024-03-06T09:27:08;14.32;71.52
75899;DHT22;64576;50.460;4.866;2024-03-06T09:29:33;14.89;69.76
75899;DHT22;64576;50.460;4.866;2024-03-06T09:31:59;14.50;70.35
75899;DHT22;64576;50.460;4.866;2024-03-06T09:34:24;14.12;69.95
75899;DHT22;64576;50.460;4.866;2024-03-06T09:36:50;13.77;73.35
75899;DHT22;64576;50.460;4.866;2024-03-06T09:39:17;13.47;70.40
75899;DHT22;64576;50.460;4.866;2024-03-06T09:42:00;14.47;70.45
75899;DHT22;64576;50.460;4.866;2024-03-06T09:44:27;14.06;69.83
75899;DHT22;64576;50.460;4.866;2024-03-06T09:46:52;14.46;68.86
75899;DHT22;64576;50.460;4.866;2024-03-06T09:49:19;15.26;68.29
75899;DHT22;64576;50.460;4.866;2024-03-06T09:51:49;14.34;67.96
75899;DHT22;64576;50.460;4.866;2024-03-06T09:54:19;14.54;68.15
75899;DHT22;64576;50.460;4.866;2024-03-06T09:56:45;13.40;70.71
75899;DHT22;64576;50.460;4.866;2024-03-06T09:59:12;14.19;68.95
75899;DHT22;64576;50.460;4.866;2024-03-06T10:04:27;13.40;71.64
75899;DHT22;64576;50.460;4.866;2024-03-06T10:06:53;14.43;70.11
75899;DHT22;64576;50.460;4.866;2024-03-06T10:09:22;15.40;66.52
75899;DHT22;64576;50.460;4.866;2024-03-06T10:11:47;15.68;65.66
75899;DHT22;64576;50.460;4.866;2024-03-06T10:14:14;15.25;66.26
75899;DHT22;64576;50.460;4.866;2024-03-06T10:16:56;15.67;65.58
75899;DHT22;64576;50.460;4.866;2024-03-06T10:19:23;15.12;66.25
75899;DHT22;64576;50.460;4.866;2024-03-06T10:21:49;14.61;67.83
75899;DHT22;64576;50.460;4.866;2024-03-06T10:24:42;16.46;63.02
75899;DHT22;64576;50.460;4.866;2024-03-06T10:27:07;16.63;64.28
75899;DHT22;64576;50.460;4.866;2024-03-06T10:29:34;16.56;62.99
75899;DHT22;64576;50.460;4.866;2024-03-06T10:32:00;17.05;65.55
75899;DHT22;64576;50.460;4.866;2024-03-06T10:34:27;18.89;62.18
75899;DHT22;64576;50.460;4.866;2024-03-06T10:36:58;19.45;58.22
75899;DHT22;64576;50.460;4.866;2024-03-06T10:39:24;19.54;58.40
75899;DHT22;64576;50.460;4.866;2024-03-06T10:41:54;17.15;58.34
75899;DHT22;64576;50.460;4.866;2024-03-06T10:44:22;17.01;59.77
75899;DHT22;64576;50.460;4.866;2024-03-06T10:47:12;15.16;63.64
75899;DHT22;64576;50.460;4.866;2024-03-06T10:49:38;16.52;61.14
75899;DHT22;64576;50.460;4.866;2024-03-06T10:52:04;16.77;60.47
75899;DHT22;64576;50.460;4.866;2024-03-06T10:54:34;15.64;62.20
75899;DHT22;64576;50.460;4.866;2024-03-06T10:57:02;13.02;67.56
75899;DHT22;64576;50.460;4.866;2024-03-06T10:59:28;13.47;68.07
75899;DHT22;64576;50.460;4.866;2024-03-06T11:01:58;14.81;67.88
75899;DHT22;64576;50.460;4.866;2024-03-06T11:04:29;17.39;59.94
75899;DHT22;64576;50.460;4.866;2024-03-06T11:06:58;18.63;56.88
75899;DHT22;64576;50.460;4.866;2024-03-06T11:09:28;19.12;55.86
75899;DHT22;64576;50.460;4.866;2024-03-06T11:11:54;19.55;55.01
75899;DHT22;64576;50.460;4.866;2024-03-06T11:14:21;18.77;55.07
75899;DHT22;64576;50.460;4.866;2024-03-06T11:17:04;16.16;58.62
75899;DHT22;64576;50.460;4.866;2024-03-06T11:19:31;17.26;58.62
75899;DHT22;64576;50.460;4.866;2024-03-06T11:21:57;18.48;56.12
75899;DHT22;64576;50.460;4.866;2024-03-06T11:24:31;17.46;55.22
75899;DHT22;64576;50.460;4.866;2024-03-06T11:27:04;18.24;54.96
75899;DHT22;64576;50.460;4.866;2024-03-06T11:30:04;18.77;55.64
75899;DHT22;64576;50.460;4.866;2024-03-06T11:32:37;19.07;53.50
75899;DHT22;64576;50.460;4.866;2024-03-06T11:35:03;19.17;52.81
75899;DHT22;64576;50.460;4.866;2024-03-06T11:37:33;19.11;54.04
75899;DHT22;64576;50.460;4.866;2024-03-06T11:40:00;19.77;52.72
75899;DHT22;64576;50.460;4.866;2024-03-06T11:42:34;19.47;56.85
75899;DHT22;64576;50.460;4.866;2024-03-06T11:45:12;20.32;50.95
75899;DHT22;64576;50.460;4.866;2024-03-06T11:48:02;19.41;51.26
75899;DHT22;64576;50.460;4.866;2024-03-06T11:50:28;19.39;50.91
75899;DHT22;64576;50.460;4.866;2024-03-06T11:52:56;20.53;53.40
75899;DHT22;64576;50.460;4.866;2024-03-06T11:55:24;22.06;47.78
75899;DHT22;64576;50.460;4.866;2024-03-06T11:57:53;20.35;50.94
75899;DHT22;64576;50.460;4.866;2024-03-06T12:00:24;21.07;51.46
75899;DHT22;64576;50.460;4.866;2024-03-06T12:02:50;20.59;49.64
75899;DHT22;64576;50.460;4.866;2024-03-06T12:05:17;19.10;52.20
75899;DHT22;64576;50.460;4.866;2024-03-06T12:07:52;20.47;52.24
75899;DHT22;64576;50.460;4.866;2024-03-06T12:10:18;20.06;49.92
75899;DHT22;64576;50.460;4.866;2024-03-06T12:12:44;19.42;50.60
75899;DHT22;64576;50.460;4.866;2024-03-06T12:15:15;20.65;49.27
75899;DHT22;64576;50.460;4.866;2024-03-06T12:17:46;20.13;49.13
75899;DHT22;64576;50.460;4.866;2024-03-06T12:20:13;19.61;48.87
75899;DHT22;64576;50.460;4.866;2024-03-06T12:22:47;20.65;48.34
75899;DHT22;64576;50.460;4.866;2024-03-06T12:25:26;19.93;49.44
75899;DHT22;64576;50.460;4.866;2024-03-06T12:27:54;20.31;49.07
75899;DHT22;64576;50.460;4.866;2024-03-06T12:30:23;20.61;46.88
75899;DHT22;64576;50.460;4.866;2024-03-06T12:33:01;22.64;43.97
75899;DHT22;64576;50.460;4.866;2024-03-06T12:35:31;22.98;46.31
75899;DHT22;64576;50.460;4.866;2024-03-06T12:37:57;22.13;44.07
75899;DHT22;64576;50.460;4.866;2024-03-06T12:40:22;21.51;45.86
75899;DHT22;64576;50.460;4.866;2024-03-06T12:42:48;19.89;47.31
75899;DHT22;64576;50.460;4.866;2024-03-06T12:45:15;19.04;49.51
75899;DHT22;64576;50.460;4.866;2024-03-06T12:47:42;19.87;48.18
75899;DHT22;64576;50.460;4.866;2024-03-06T12:50:08;19.77;49.66
75899;DHT22;64576;50.460;4.866;2024-03-06T12:52:34;19.79;48.66
75899;DHT22;64576;50.460;4.866;2024-03-06T12:55:00;21.98;47.93
75899;DHT22;64576;50.460;4.866;2024-03-06T12:57:26;22.94;44.59
75899;DHT22;64576;50.460;4.866;2024-03-06T12:59:53;23.61;43.78
75899;DHT22;64576;50.460;4.866;2024-03-06T13:02:18;21.79;44.24
75899;DHT22;64576;50.460;4.866;2024-03-06T13:04:43;19.21;47.60
75899;DHT22;64576;50.460;4.866;2024-03-06T13:07:09;19.92;47.88
75899;DHT22;64576;50.460;4.866;2024-03-06T13:09:34;21.28;48.12
75899;DHT22;64576;50.460;4.866;2024-03-06T13:12:00;21.93;46.82
75899;DHT22;64576;50.460;4.866;2024-03-06T13:14:25;20.16;46.49
75899;DHT22;64576;50.460;4.866;2024-03-06T13:16:50;19.55;47.18
75899;DHT22;64576;50.460;4.866;2024-03-06T13:19:16;20.00;47.10
75899;DHT22;64576;50.460;4.866;2024-03-06T13:21:41;20.28;46.14
75899;DHT22;64576;50.460;4.866;2024-03-06T13:24:06;18.93;48.18
75899;DHT22;64576;50.460;4.866;2024-03-06T13:26:33;20.51;46.86
75899;DHT22;64576;50.460;4.866;2024-03-06T13:28:59;22.07;45.36
75899;DHT22;64576;50.460;4.866;2024-03-06T13:31:24;22.67;43.97
75899;DHT22;64576;50.460;4.866;2024-03-06T13:33:50;19.11;47.49
75899;DHT22;64576;50.460;4.866;2024-03-06T13:36:15;21.78;46.38
75899;DHT22;64576;50.460;4.866;2024-03-06T13:38:41;21.45;44.01
75899;DHT22;64576;50.460;4.866;2024-03-06T13:41:06;17.65;50.13
75899;DHT22;64576;50.460;4.866;2024-03-06T13:43:31;18.70;49.89
75899;DHT22;64576;50.460;4.866;2024-03-06T13:45:58;19.08;49.11
75899;DHT22;64576;50.460;4.866;2024-03-06T13:48:23;17.65;49.70
75899;DHT22;64576;50.460;4.866;2024-03-06T13:50:49;18.27;49.34
75899;DHT22;64576;50.460;4.866;2024-03-06T13:53:14;18.53;49.64
75899;DHT22;64576;50.460;4.866;2024-03-06T13:55:40;19.18;48.48
75899;DHT22;64576;50.460;4.866;2024-03-06T13:58:07;17.56;50.98
75899;DHT22;64576;50.460;4.866;2024-03-06T14:00:32;18.08;51.21
75899;DHT22;64576;50.460;4.866;2024-03-06T14:02:59;16.19;53.72
75899;DHT22;64576;50.460;4.866;2024-03-06T14:05:25;15.51;55.22
75899;DHT22;64576;50.460;4.866;2024-03-06T14:07:51;15.42;55.30
75899;DHT22;64576;50.460;4.866;2024-03-06T14:10:16;16.56;53.38
75899;DHT22;64576;50.460;4.866;2024-03-06T14:12:44;17.66;52.09
75899;DHT22;64576;50.460;4.866;2024-03-06T14:15:10;18.01;50.90
75899;DHT22;64576;50.460;4.866;2024-03-06T14:17:38;17.40;52.17
75899;DHT22;64576;50.460;4.866;2024-03-06T14:20:04;15.56;55.09
75899;DHT22;64576;50.460;4.866;2024-03-06T14:22:30;14.81;56.80
75899;DHT22;64576;50.460;4.866;2024-03-06T14:24:55;15.32;56.21
75899;DHT22;64576;50.460;4.866;2024-03-06T14:27:21;13.78;59.16
75899;DHT22;64576;50.460;4.866;2024-03-06T14:29:47;13.55;59.73
75899;DHT22;64576;50.460;4.866;2024-03-06T14:32:12;14.54;58.67
75899;DHT22;64576;50.460;4.866;2024-03-06T14:34:38;17.19;53.30
75899;DHT22;64576;50.460;4.866;2024-03-06T14:37:03;17.38;53.40
75899;DHT22;64576;50.460;4.866;2024-03-06T14:39:30;17.24;51.63
75899;DHT22;64576;50.460;4.866;2024-03-06T14:41:55;18.01;50.43
75899;DHT22;64576;50.460;4.866;2024-03-06T14:44:21;17.76;51.52
75899;DHT22;64576;50.460;4.866;2024-03-06T14:46:49;19.56;47.27
75899;DHT22;64576;50.460;4.866;2024-03-06T14:49:14;17.21;51.50
75899;DHT22;64576;50.460;4.866;2024-03-06T14:51:43;14.75;58.61
75899;DHT22;64576;50.460;4.866;2024-03-06T14:54:09;14.36;59.17
75899;DHT22;64576;50.460;4.866;2024-03-06T14:56:35;13.95;61.12
75899;DHT22;64576;50.460;4.866;2024-03-06T14:59:00;13.88;62.27
75899;DHT22;64576;50.460;4.866;2024-03-06T15:01:25;13.19;65.08
75899;DHT22;64576;50.460;4.866;2024-03-06T15:03:52;12.55;66.94
75899;DHT22;64576;50.460;4.866;2024-03-06T15:06:18;14.44;64.60
75899;DHT22;64576;50.460;4.866;2024-03-06T15:08:43;13.50;64.06
75899;DHT22;64576;50.460;4.866;2024-03-06T15:11:10;13.00;66.05
75899;DHT22;64576;50.460;4.866;2024-03-06T15:13:35;12.60;66.73
75899;DHT22;64576;50.460;4.866;2024-03-06T15:16:01;12.69;66.98
75899;DHT22;64576;50.460;4.866;2024-03-06T15:18:26;13.30;66.16
75899;DHT22;64576;50.460;4.866;2024-03-06T15:20:51;12.60;67.22
75899;DHT22;64576;50.460;4.866;2024-03-06T15:23:17;12.36;69.30
75899;DHT22;64576;50.460;4.866;2024-03-06T15:25:43;11.50;70.35
75899;DHT22;64576;50.460;4.866;2024-03-06T15:28:10;11.68;70.76
75899;DHT22;64576;50.460;4.866;2024-03-06T15:30:36;11.28;71.69
75899;DHT22;64576;50.460;4.866;2024-03-06T15:33:03;11.41;71.86
75899;DHT22;64576;50.460;4.866;2024-03-06T15:35:28;11.62;71.48
75899;DHT22;64576;50.460;4.866;2024-03-06T15:37:54;11.09;71.71